createdAt,value
2022-12-13T00:03:54.670Z,101083.88
2022-12-13T00:09:18.057Z,101078.19
2022-12-13T00:14:39.781Z,101074.22
2022-12-13T00:20:01.522Z,101073.81
2022-12-13T00:25:23.259Z,101071.28
2022-12-13T00:30:44.988Z,101065.38
2022-12-13T00:36:07.930Z,101064.16
2022-12-13T00:41:32.686Z,101057.19
2022-12-13T00:46:54.791Z,101055.72
2022-12-13T00:52:16.516Z,101045.97
2022-12-13T00:57:38.218Z,101052.00
2022-12-13T01:03:00.026Z,101035.84
2022-12-13T01:08:21.849Z,101032.47
2022-12-13T01:13:44.003Z,101026.56
2022-12-13T01:19:05.697Z,101030.66
2022-12-13T01:24:28.570Z,101026.44
2022-12-13T01:29:50.303Z,101024.97
2022-12-13T01:35:14.344Z,101025.44
2022-12-13T01:40:44.107Z,101017.41
2022-12-13T01:46:06.632Z,101030.84
2022-12-13T01:51:42.156Z,101033.59
2022-12-13T01:57:09.067Z,101029.84
2022-12-13T02:02:31.117Z,101035.59
2022-12-13T02:07:53.716Z,101035.84
2022-12-13T02:13:15.825Z,101031.63
2022-12-13T02:19:05.306Z,101019.72
2022-12-13T02:24:29.794Z,101014.91
2022-12-13T02:30:19.779Z,101014.91
2022-12-13T02:35:55.375Z,101016.41
2022-12-13T02:41:38.325Z,101015.84
2022-12-13T02:47:12.541Z,101007.75
2022-12-13T02:52:35.936Z,101004.63
2022-12-13T02:57:57.599Z,101009.53
2022-12-13T03:03:24.366Z,100999.56
2022-12-13T03:08:49.110Z,101001.69
2022-12-13T03:14:12.934Z,101002.19
2022-12-13T03:19:35.012Z,101009.84
2022-12-13T03:24:56.846Z,101014.53
2022-12-13T03:30:18.628Z,101007.31
2022-12-13T03:35:44.855Z,101005.66
2022-12-13T03:41:14.028Z,100995.84
2022-12-13T03:46:35.852Z,101010.16
2022-12-13T03:51:57.607Z,101002.31
2022-12-13T03:57:19.373Z,100985.75
2022-12-13T04:02:41.105Z,100970.44
2022-12-13T04:08:03.085Z,100967.94
2022-12-13T04:13:34.046Z,100972.84
2022-12-13T04:18:55.850Z,100962.88
2022-12-13T04:24:17.594Z,100961.19
2022-12-13T04:29:39.315Z,100956.97
2022-12-13T04:35:12.721Z,100956.97
2022-12-13T04:40:35.289Z,100961.03
2022-12-13T04:45:57.037Z,100945.53
2022-12-13T04:51:18.782Z,100942.16
2022-12-13T04:56:40.488Z,100934.97
2022-12-13T05:02:02.299Z,100931.56
2022-12-13T05:07:24.116Z,100945.63
2022-12-13T05:12:45.869Z,100932.88
2022-12-13T05:18:09.880Z,100935.91
2022-12-13T05:23:33.301Z,100942.69
2022-12-13T05:28:58.344Z,100941.88
2022-12-13T05:34:20.045Z,100949.53
2022-12-13T05:39:41.765Z,100945.31
2022-12-13T05:45:03.714Z,100938.94
2022-12-13T05:50:25.910Z,100953.81
2022-12-13T05:55:47.648Z,100944.94
2022-12-13T06:01:14.298Z,100954.28
2022-12-13T06:06:35.981Z,100963.66
2022-12-13T06:12:01.063Z,100961.72
2022-12-13T06:17:24.868Z,100945.41
2022-12-13T06:22:46.601Z,100944.78
2022-12-13T06:28:08.354Z,100930.19
2022-12-13T06:33:30.174Z,100936.28
2022-12-13T06:38:52.014Z,100932.72
2022-12-13T06:44:13.751Z,100928.94
2022-12-13T06:49:35.504Z,100916.25
2022-12-13T06:54:59.952Z,100908.38
2022-12-13T07:00:22.785Z,100907.94
2022-12-13T07:05:45.358Z,100912.09
2022-12-13T07:11:07.170Z,100920.63
2022-12-13T07:16:29.135Z,100931.31
2022-12-13T07:21:50.967Z,100928.13
2022-12-13T07:27:12.699Z,100928.25
2022-12-13T07:32:34.467Z,100931.19
2022-12-13T07:37:56.204Z,100936.38
2022-12-13T07:43:18.280Z,100941.56
2022-12-13T07:48:40.377Z,100961.19
2022-12-13T07:54:06.313Z,100949.84
2022-12-13T07:59:29.175Z,100950.59
2022-12-13T08:04:55.018Z,100945.53
2022-12-13T08:10:17.034Z,100943.38
2022-12-13T08:15:38.732Z,100949.25
2022-12-13T08:21:02.108Z,100959.44
2022-12-13T08:26:24.091Z,100955.63
2022-12-13T08:31:46.224Z,100964.44
2022-12-13T08:37:08.049Z,100969.91
2022-12-13T08:42:29.788Z,100961.22
2022-12-13T08:47:51.462Z,100966.28
2022-12-13T08:53:28.858Z,100975.22
2022-12-13T08:58:52.196Z,100974.25
2022-12-13T09:04:13.863Z,100970.75
2022-12-13T09:09:37.142Z,100993.28
2022-12-13T09:15:00.924Z,100988.22
2022-12-13T09:20:29.749Z,100981.81
2022-12-13T09:26:05.199Z,100994.06
2022-12-13T09:31:27.909Z,100988.88
2022-12-13T09:36:49.620Z,100987.00
2022-12-13T09:42:21.198Z,100995.31
2022-12-13T09:47:46.998Z,100987.41
2022-12-13T09:53:21.454Z,100997.78
2022-12-13T09:58:56.908Z,100991.50
2022-12-13T10:04:19.210Z,100977.78
2022-12-13T10:09:40.925Z,100978.50
2022-12-13T10:15:03.747Z,100979.72
2022-12-13T10:20:29.132Z,100964.16
2022-12-13T10:26:03.297Z,100974.25
2022-12-13T10:31:26.236Z,100949.88
2022-12-13T10:36:48.446Z,100946.56
2022-12-13T10:42:22.887Z,100949.63
2022-12-13T10:47:46.209Z,100938.22
2022-12-13T10:53:19.792Z,100937.94
2022-12-13T10:58:47.143Z,100918.00
2022-12-13T11:04:33.283Z,100919.09
2022-12-13T11:09:55.278Z,100928.78
2022-12-13T11:15:23.452Z,100909.34
2022-12-13T11:21:11.976Z,100897.94
2022-12-13T11:26:38.012Z,100895.06
2022-12-13T11:32:05.555Z,100888.91
2022-12-13T11:37:48.496Z,100870.47
2022-12-13T11:43:40.107Z,100872.34
2022-12-13T11:49:10.690Z,100869.13
2022-12-13T11:54:46.760Z,100860.63
2022-12-13T12:00:34.435Z,100835.75
2022-12-13T12:06:06.046Z,100828.59
2022-12-13T12:11:35.998Z,100836.13
2022-12-13T12:16:59.258Z,100827.63
2022-12-13T12:22:46.524Z,100834.34
2022-12-13T12:28:29.696Z,100835.50
2022-12-13T12:34:28.564Z,100830.94
2022-12-13T12:40:09.782Z,100827.75
2022-12-13T12:46:03.544Z,100814.72
2022-12-13T12:52:00.465Z,100819.00
2022-12-13T12:58:08.359Z,100821.16
2022-12-13T13:03:32.412Z,100827.69
2022-12-13T13:08:59.350Z,100812.19
2022-12-13T13:14:23.812Z,100810.41
2022-12-13T13:19:47.927Z,100802.94
2022-12-13T13:25:35.206Z,100797.53
2022-12-13T13:31:09.355Z,100806.63
2022-12-13T13:36:41.272Z,100782.28
2022-12-13T13:42:14.753Z,100776.19
2022-12-13T13:47:39.294Z,100770.13
2022-12-13T13:53:21.231Z,100754.88
2022-12-13T13:58:48.775Z,100739.56
2022-12-13T14:04:48.713Z,100752.03
2022-12-13T14:10:36.037Z,100751.78
2022-12-13T14:16:37.200Z,100746.81
2022-12-13T14:22:01.763Z,100740.50
2022-12-13T14:27:45.638Z,100733.91
2022-12-13T14:33:21.288Z,100737.84
2022-12-13T14:38:43.193Z,100727.06
2022-12-13T14:44:25.079Z,100726.13
2022-12-13T14:49:51.351Z,100715.34
2022-12-13T14:55:33.571Z,100710.03
2022-12-13T15:00:58.278Z,100710.00
2022-12-13T15:06:21.471Z,100692.69
2022-12-13T15:11:44.873Z,100689.88
2022-12-13T15:17:07.122Z,100671.41
2022-12-13T15:22:30.103Z,100681.69
2022-12-13T15:27:54.964Z,100674.19
2022-12-13T15:33:19.098Z,100666.31
2022-12-13T15:38:47.945Z,100671.06
2022-12-13T15:44:20.932Z,100665.44
2022-12-13T15:49:51.052Z,100663.59
2022-12-13T15:55:12.659Z,100660.09
2022-12-13T16:00:48.901Z,100664.31
2022-12-13T16:06:18.231Z,100667.44
2022-12-13T16:11:50.066Z,100657.25
2022-12-13T16:17:29.596Z,100663.69
2022-12-13T16:22:51.373Z,100655.91
2022-12-13T16:28:17.824Z,100646.63
2022-12-13T16:33:39.568Z,100645.84
2022-12-13T16:39:01.303Z,100633.50
2022-12-13T16:44:41.437Z,100632.22
2022-12-13T16:50:10.002Z,100631.19
2022-12-13T16:55:31.713Z,100638.56
2022-12-13T17:00:58.227Z,100646.75
2022-12-13T17:06:24.270Z,100641.31
2022-12-13T17:11:46.163Z,100648.31
2022-12-13T17:17:09.774Z,100642.75
2022-12-13T17:22:35.219Z,100639.69
2022-12-13T17:27:56.962Z,100646.47
2022-12-13T17:33:18.667Z,100643.16
2022-12-13T17:38:47.918Z,100638.66
2022-12-13T17:44:10.996Z,100638.72
2022-12-13T17:49:32.699Z,100633.19
2022-12-13T17:54:54.432Z,100634.19
2022-12-13T18:00:16.546Z,100630.19
2022-12-13T18:05:38.218Z,100610.06
2022-12-13T18:11:23.982Z,100613.84
2022-12-13T18:16:41.648Z,100597.81
2022-12-13T18:22:03.451Z,100588.72
2022-12-13T18:27:25.302Z,100585.75
2022-12-13T18:32:47.422Z,100578.63
2022-12-13T18:38:09.549Z,100572.81
2022-12-13T18:43:31.195Z,100567.22
2022-12-13T18:48:52.888Z,100552.13
2022-12-13T18:54:14.551Z,100556.19
2022-12-13T18:59:36.218Z,100555.19
2022-12-13T19:04:57.895Z,100545.66
2022-12-13T19:10:19.643Z,100532.75
2022-12-13T19:15:41.477Z,100530.66
2022-12-13T19:21:07.594Z,100525.53
2022-12-13T19:26:29.754Z,100522.34
2022-12-13T19:31:51.572Z,100509.78
2022-12-13T19:37:13.254Z,100508.19
2022-12-13T19:42:34.978Z,100502.34
2022-12-13T19:47:56.667Z,100492.25
2022-12-13T19:53:18.353Z,100485.41
2022-12-13T19:58:40.735Z,100469.06
2022-12-13T20:04:02.448Z,100475.28
2022-12-13T20:09:24.161Z,100459.81
2022-12-13T20:14:46.149Z,100459.22
2022-12-13T20:20:08.253Z,100453.88
2022-12-13T20:25:30.038Z,100454.03
2022-12-13T20:30:51.803Z,100453.94
2022-12-13T20:36:27.217Z,100449.41
2022-12-13T20:41:49.387Z,100434.94
2022-12-13T20:47:11.233Z,100429.13
2022-12-13T20:52:33.155Z,100422.34
2022-12-13T20:57:55.062Z,100407.59
2022-12-13T21:03:16.753Z,100398.34
2022-12-13T21:09:00.184Z,100400.13
2022-12-13T21:14:25.584Z,100389.63
2022-12-13T21:19:48.940Z,100392.69
2022-12-13T21:25:10.724Z,100385.69
2022-12-13T21:30:32.465Z,100386.72
2022-12-13T21:35:54.726Z,100387.75
2022-12-13T21:41:16.607Z,100380.44
2022-12-13T21:47:10.630Z,100380.84
2022-12-13T21:52:20.056Z,100379.53
2022-12-13T21:58:05.961Z,100364.75
2022-12-13T22:03:29.619Z,100360.72
2022-12-13T22:08:51.314Z,100359.19
2022-12-13T22:14:13.318Z,100339.69
2022-12-13T22:19:35.132Z,100345.09
2022-12-13T22:24:56.844Z,100333.88
2022-12-13T22:30:18.575Z,100333.75
2022-12-13T22:35:40.327Z,100318.16
2022-12-13T22:41:05.776Z,100321.41
2022-12-13T22:46:27.925Z,100335.69
2022-12-13T22:51:49.658Z,100326.47
2022-12-13T22:57:11.413Z,100322.22
2022-12-13T23:02:33.088Z,100333.22
2022-12-13T23:07:54.888Z,100338.41
2022-12-13T23:13:16.755Z,100330.88
2022-12-13T23:18:38.566Z,100335.25
2022-12-13T23:24:00.479Z,100332.16
2022-12-13T23:29:22.188Z,100330.63
2022-12-13T23:34:43.932Z,100322.81
2022-12-13T23:40:06.187Z,100311.69
2022-12-13T23:45:27.890Z,100296.69
2022-12-13T23:50:49.680Z,100294.69
2022-12-13T23:56:14.080Z,100285.00
